Airfield :
LOGIN :

Register | Disclaimer

   EN    FR    IT 

 










Legend :    VFR   Marginal VFR   IFR   Intensive IFR   Very Intensive IFR
Visi :
Ceiling :
>= 8 km
>= 3000ft
5 to 8 km
1000 to 3000 ft
1500m to 5 km
500 to 1000 ft
800 to 1500m
200 to 500 ft
< 800m
< 200 ft
Symbols :   Thunderstorms  Fog  Heavy snow  Heavy precipitations  Wind > 20 kt
SIGMETs :     Misc.  Thunderstorms  Icing  Turbulence  Mountain Waves  Volcanic Ashes






- Airport Elevation : 1989 ft
- IATA code : KLV


LKKV - Karlovy Vary

CURRENT METAR :
  • 171130Z 24007KT 200V280 9999 FEW030 08/M01 Q1016

EXPIRED METARs :
  • 171100Z 24008KT 200V270 9999 FEW027 08/01 Q1016
  • 171030Z 25007KT 220V280 9999 FEW023 07/02 Q1016
  • 171000Z 23006KT 190V280 9999 FEW023 07/03 Q1016
  • 170930Z 26007KT 190V280 9999 SCT023 07/03 Q1016
  • 170900Z 26008KT 9999 SCT020 07/03 Q1016

TAF TAF LKKV
Valid from the 17 at 12:00 until the 18 at 18:00 UTC


171100Z 1712/1818 25012KT 9999 BKN020
TEMPO 1712/1721 7000 RA BKN010
PROB30
TEMPO 1712/1721 25012G22KT 4000 RA BR BKN005
TEMPO 1723/1818 26014G28KT 5000 SHRA BKN008
PROB30
TEMPO 1803/1818 2500 SHRASN BKN004



MET'MAP, your aeronautical weather chart ! - Copyright ORBIFLY December 2007 - Disclaimer

ORBIFLY MET'MAP TEAM :

Programming & Development : Alexandra Zaïnal
Concept & original design : Baudouin d'Aumeries
Assistance for programming : Marc-Olivier Méhu
Technical & hardware support : Manuel Goepfert

Contact : metmap@orbifly.com




SOURCES & CREDITS :

   NOAA